sensor_id;sensor_type;location;lat;lon;timestamp;pressure;altitude;pressure_sealevel;temperature;humidity
61436;BME280;47304;47.456;19.160;2023-03-21T00:00:40;100245.42;;;10.68;59.76
61436;BME280;47304;47.456;19.160;2023-03-21T00:03:07;100248.75;;;10.65;59.85
61436;BME280;47304;47.456;19.160;2023-03-21T00:05:33;100249.65;;;10.62;60.07
61436;BME280;47304;47.456;19.160;2023-03-21T00:08:00;100249.12;;;10.60;60.02
61436;BME280;47304;47.456;19.160;2023-03-21T00:10:28;100243.37;;;10.58;60.24
61436;BME280;47304;47.456;19.160;2023-03-21T00:13:06;100235.14;;;10.57;60.31
61436;BME280;47304;47.456;19.160;2023-03-21T00:15:32;100236.34;;;10.54;60.24
61436;BME280;47304;47.456;19.160;2023-03-21T00:18:13;100237.59;;;10.52;60.35
61436;BME280;47304;47.456;19.160;2023-03-21T00:20:40;100233.91;;;10.49;60.40
61436;BME280;47304;47.456;19.160;2023-03-21T00:23:07;100231.47;;;10.45;60.37
61436;BME280;47304;47.456;19.160;2023-03-21T00:25:33;100230.08;;;10.42;60.50
61436;BME280;47304;47.456;19.160;2023-03-21T00:28:00;100226.73;;;10.38;60.55
61436;BME280;47304;47.456;19.160;2023-03-21T00:30:34;100227.08;;;10.34;60.57
61436;BME280;47304;47.456;19.160;2023-03-21T00:33:00;100226.57;;;10.29;60.68
61436;BME280;47304;47.456;19.160;2023-03-21T00:35:45;100219.58;;;10.23;60.79
61436;BME280;47304;47.456;19.160;2023-03-21T00:38:31;100219.40;;;10.20;61.00
61436;BME280;47304;47.456;19.160;2023-03-21T00:40:57;100210.48;;;10.18;61.24
61436;BME280;47304;47.456;19.160;2023-03-21T00:43:33;100209.08;;;10.16;61.34
61436;BME280;47304;47.456;19.160;2023-03-21T00:46:00;100204.88;;;10.15;61.36
61436;BME280;47304;47.456;19.160;2023-03-21T00:48:26;100202.43;;;10.14;61.47
61436;BME280;47304;47.456;19.160;2023-03-21T00:50:55;100201.90;;;10.14;61.48
61436;BME280;47304;47.456;19.160;2023-03-21T00:53:22;100203.48;;;10.13;61.61
61436;BME280;47304;47.456;19.160;2023-03-21T00:55:50;100199.29;;;10.13;61.70
61436;BME280;47304;47.456;19.160;2023-03-21T00:58:17;100198.23;;;10.12;61.68
61436;BME280;47304;47.456;19.160;2023-03-21T01:00:44;100199.64;;;10.11;61.66
61436;BME280;47304;47.456;19.160;2023-03-21T01:03:13;100199.30;;;10.10;61.68
61436;BME280;47304;47.456;19.160;2023-03-21T01:05:51;100199.29;;;10.06;61.77
61436;BME280;47304;47.456;19.160;2023-03-21T01:08:19;100194.91;;;10.01;61.78
61436;BME280;47304;47.456;19.160;2023-03-21T01:10:55;100193.70;;;9.97;61.73
61436;BME280;47304;47.456;19.160;2023-03-21T01:13:23;100193.53;;;9.92;61.85
61436;BME280;47304;47.456;19.160;2023-03-21T01:15:54;100190.02;;;9.87;61.97
61436;BME280;47304;47.456;19.160;2023-03-21T01:18:23;100193.52;;;9.84;62.18
61436;BME280;47304;47.456;19.160;2023-03-21T01:20:51;100193.19;;;9.81;62.30
61436;BME280;47304;47.456;19.160;2023-03-21T01:23:18;100192.13;;;9.79;62.32
61436;BME280;47304;47.456;19.160;2023-03-21T01:25:47;100186.53;;;9.76;62.24
61436;BME280;47304;47.456;19.160;2023-03-21T01:28:14;100186.18;;;9.73;62.21
61436;BME280;47304;47.456;19.160;2023-03-21T01:30:47;100185.31;;;9.71;62.23
61436;BME280;47304;47.456;19.160;2023-03-21T01:33:15;100186.00;;;9.68;62.38
61436;BME280;47304;47.456;19.160;2023-03-21T01:35:42;100184.77;;;9.65;62.44
61436;BME280;47304;47.456;19.160;2023-03-21T01:38:18;100186.70;;;9.62;62.54
61436;BME280;47304;47.456;19.160;2023-03-21T01:40:46;100183.73;;;9.59;62.60
61436;BME280;47304;47.456;19.160;2023-03-21T01:43:32;100181.27;;;9.57;62.69
61436;BME280;47304;47.456;19.160;2023-03-21T01:48:54;100177.95;;;9.46;63.00
61436;BME280;47304;47.456;19.160;2023-03-21T01:51:23;100184.25;;;9.43;63.08
61436;BME280;47304;47.456;19.160;2023-03-21T01:53:52;100184.41;;;9.40;63.08
61436;BME280;47304;47.456;19.160;2023-03-21T01:58:51;100186.31;;;9.31;63.08
61436;BME280;47304;47.456;19.160;2023-03-21T02:01:20;100181.23;;;9.26;63.11
61436;BME280;47304;47.456;19.160;2023-03-21T02:03:48;100178.78;;;9.22;63.22
61436;BME280;47304;47.456;19.160;2023-03-21T02:06:28;100181.58;;;9.18;63.28
61436;BME280;47304;47.456;19.160;2023-03-21T02:09:03;100182.44;;;9.13;63.41
61436;BME280;47304;47.456;19.160;2023-03-21T02:11:30;100180.50;;;9.08;63.42
61436;BME280;47304;47.456;19.160;2023-03-21T02:13:57;100182.23;;;9.04;63.54
61436;BME280;47304;47.456;19.160;2023-03-21T02:26:09;100179.80;;;9.11;65.46
61436;BME280;47304;47.456;19.160;2023-03-21T02:28:48;100177.73;;;9.22;65.69
61436;BME280;47304;47.456;19.160;2023-03-21T02:31:45;100181.25;;;9.33;65.67
61436;BME280;47304;47.456;19.160;2023-03-21T02:34:37;100175.66;;;9.44;65.28
61436;BME280;47304;47.456;19.160;2023-03-21T02:37:31;100178.30;;;9.54;65.16
61436;BME280;47304;47.456;19.160;2023-03-21T02:42:52;100180.75;;;9.71;64.94
61436;BME280;47304;47.456;19.160;2023-03-21T02:45:35;100183.20;;;9.77;64.86
61436;BME280;47304;47.456;19.160;2023-03-21T02:48:14;100182.68;;;9.84;64.65
61436;BME280;47304;47.456;19.160;2023-03-21T02:50:58;100183.90;;;9.91;64.51
61436;BME280;47304;47.456;19.160;2023-03-21T02:53:30;100184.24;;;9.96;64.32
61436;BME280;47304;47.456;19.160;2023-03-21T02:56:00;100186.70;;;10.01;64.10
61436;BME280;47304;47.456;19.160;2023-03-21T02:58:29;100189.84;;;10.05;64.04
61436;BME280;47304;47.456;19.160;2023-03-21T03:00:57;100191.41;;;10.08;63.88
61436;BME280;47304;47.456;19.160;2023-03-21T03:03:24;100190.88;;;10.12;63.83
61436;BME280;47304;47.456;19.160;2023-03-21T03:06:01;100191.05;;;10.17;63.59
61436;BME280;47304;47.456;19.160;2023-03-21T03:11:35;100196.82;;;10.21;63.36
61436;BME280;47304;47.456;19.160;2023-03-21T03:20:09;100191.91;;;10.22;63.25
61436;BME280;47304;47.456;19.160;2023-03-21T03:22:52;100192.63;;;10.23;63.36
61436;BME280;47304;47.456;19.160;2023-03-21T03:25:27;100195.94;;;10.25;63.27
61436;BME280;47304;47.456;19.160;2023-03-21T03:28:08;100193.48;;;10.26;63.15
61436;BME280;47304;47.456;19.160;2023-03-21T03:30:37;100195.05;;;10.28;62.99
61436;BME280;47304;47.456;19.160;2023-03-21T03:33:25;100188.40;;;10.29;62.79
61436;BME280;47304;47.456;19.160;2023-03-21T03:35:54;100192.59;;;10.31;62.87
61436;BME280;47304;47.456;19.160;2023-03-21T03:38:33;100190.50;;;10.34;62.67
61436;BME280;47304;47.456;19.160;2023-03-21T03:41:08;100190.13;;;10.35;62.55
61436;BME280;47304;47.456;19.160;2023-03-21T03:43:42;100198.54;;;10.36;62.49
61436;BME280;47304;47.456;19.160;2023-03-21T03:46:17;100199.95;;;10.37;62.39
61436;BME280;47304;47.456;19.160;2023-03-21T03:48:57;100196.77;;;10.36;62.39
61436;BME280;47304;47.456;19.160;2023-03-21T03:51:42;100194.70;;;10.37;62.35
61436;BME280;47304;47.456;19.160;2023-03-21T03:54:19;100193.64;;;10.37;62.33
61436;BME280;47304;47.456;19.160;2023-03-21T03:56:47;100189.80;;;10.36;62.26
61436;BME280;47304;47.456;19.160;2023-03-21T03:59:15;100185.76;;;10.34;62.25
61436;BME280;47304;47.456;19.160;2023-03-21T04:01:41;100185.24;;;10.34;62.21
61436;BME280;47304;47.456;19.160;2023-03-21T04:04:08;100183.32;;;10.32;62.26
61436;BME280;47304;47.456;19.160;2023-03-21T04:06:39;100192.23;;;10.29;62.29
61436;BME280;47304;47.456;19.160;2023-03-21T04:09:05;100195.39;;;10.26;62.22
61436;BME280;47304;47.456;19.160;2023-03-21T04:11:45;100197.52;;;10.22;62.35
61436;BME280;47304;47.456;19.160;2023-03-21T04:14:12;100198.22;;;10.21;62.42
61436;BME280;47304;47.456;19.160;2023-03-21T04:16:39;100203.13;;;10.19;62.38
61436;BME280;47304;47.456;19.160;2023-03-21T04:19:06;100201.02;;;10.18;62.46
61436;BME280;47304;47.456;19.160;2023-03-21T04:21:33;100196.81;;;10.18;62.55
61436;BME280;47304;47.456;19.160;2023-03-21T04:23:59;100196.83;;;10.20;62.60
61436;BME280;47304;47.456;19.160;2023-03-21T04:26:26;100201.20;;;10.20;62.67
61436;BME280;47304;47.456;19.160;2023-03-21T04:28:52;100197.19;;;10.19;62.60
61436;BME280;47304;47.456;19.160;2023-03-21T04:31:19;100201.89;;;10.19;62.42
61436;BME280;47304;47.456;19.160;2023-03-21T04:33:51;100201.02;;;10.19;62.55
61436;BME280;47304;47.456;19.160;2023-03-21T04:36:18;100200.67;;;10.17;62.59
61436;BME280;47304;47.456;19.160;2023-03-21T04:38:44;100202.78;;;10.15;62.45
61436;BME280;47304;47.456;19.160;2023-03-21T04:41:11;100200.16;;;10.13;62.69
61436;BME280;47304;47.456;19.160;2023-03-21T04:43:37;100197.36;;;10.10;62.73
61436;BME280;47304;47.456;19.160;2023-03-21T04:46:04;100195.79;;;10.08;62.78
61436;BME280;47304;47.456;19.160;2023-03-21T04:48:31;100192.11;;;10.05;62.82
61436;BME280;47304;47.456;19.160;2023-03-21T04:50:57;100189.66;;;10.03;62.74
61436;BME280;47304;47.456;19.160;2023-03-21T04:53:24;100188.96;;;10.00;62.93
61436;BME280;47304;47.456;19.160;2023-03-21T04:55:51;100190.55;;;9.98;62.81
61436;BME280;47304;47.456;19.160;2023-03-21T04:58:20;100185.13;;;9.96;62.87
61436;BME280;47304;47.456;19.160;2023-03-21T05:00:47;100183.38;;;9.92;62.92
61436;BME280;47304;47.456;19.160;2023-03-21T05:03:13;100183.03;;;9.90;62.98
61436;BME280;47304;47.456;19.160;2023-03-21T05:05:40;100180.92;;;9.89;62.95
61436;BME280;47304;47.456;19.160;2023-03-21T05:08:06;100183.38;;;9.88;63.05
61436;BME280;47304;47.456;19.160;2023-03-21T05:10:33;100186.02;;;9.86;63.17
61436;BME280;47304;47.456;19.160;2023-03-21T05:13:00;100191.41;;;9.83;63.20
61436;BME280;47304;47.456;19.160;2023-03-21T05:15:26;100197.19;;;9.83;63.35
61436;BME280;47304;47.456;19.160;2023-03-21T05:17:54;100191.77;;;9.83;63.68
61436;BME280;47304;47.456;19.160;2023-03-21T05:20:20;100197.21;;;9.85;63.80
61436;BME280;47304;47.456;19.160;2023-03-21T05:22:47;100196.51;;;9.89;63.68
61436;BME280;47304;47.456;19.160;2023-03-21T05:25:13;100196.15;;;9.93;63.68
61436;BME280;47304;47.456;19.160;2023-03-21T05:27:40;100201.21;;;9.97;63.56
61436;BME280;47304;47.456;19.160;2023-03-21T05:30:16;100195.61;;;10.01;63.47
61436;BME280;47304;47.456;19.160;2023-03-21T05:32:43;100195.44;;;10.03;63.42
61436;BME280;47304;47.456;19.160;2023-03-21T05:35:10;100196.15;;;10.03;63.32
61436;BME280;47304;47.456;19.160;2023-03-21T05:37:37;100197.54;;;10.07;63.38
61436;BME280;47304;47.456;19.160;2023-03-21T05:40:07;100199.98;;;10.09;63.28
61436;BME280;47304;47.456;19.160;2023-03-21T05:42:34;100198.05;;;10.15;63.36
61436;BME280;47304;47.456;19.160;2023-03-21T05:45:01;100206.09;;;10.22;63.19
61436;BME280;47304;47.456;19.160;2023-03-21T05:47:27;100212.04;;;10.27;63.09
61436;BME280;47304;47.456;19.160;2023-03-21T05:49:54;100213.60;;;10.34;63.05
61436;BME280;47304;47.456;19.160;2023-03-21T05:52:21;100219.23;;;10.39;63.03
61436;BME280;47304;47.456;19.160;2023-03-21T05:54:48;100222.02;;;10.48;62.77
61436;BME280;47304;47.456;19.160;2023-03-21T05:57:15;100219.17;;;10.58;62.74
61436;BME280;47304;47.456;19.160;2023-03-21T05:59:42;100221.59;;;10.71;62.46
61436;BME280;47304;47.456;19.160;2023-03-21T06:02:08;100224.53;;;10.83;62.11
61436;BME280;47304;47.456;19.160;2023-03-21T06:04:35;100223.09;;;10.95;62.00
61436;BME280;47304;47.456;19.160;2023-03-21T06:07:02;100225.84;;;11.04;61.62
61436;BME280;47304;47.456;19.160;2023-03-21T06:09:28;100222.98;;;11.13;61.46
61436;BME280;47304;47.456;19.160;2023-03-21T06:11:56;100224.89;;;11.19;61.16
61436;BME280;47304;47.456;19.160;2023-03-21T06:14:23;100229.27;;;11.24;60.90
61436;BME280;47304;47.456;19.160;2023-03-21T06:16:50;100229.40;;;11.28;60.83
61436;BME280;47304;47.456;19.160;2023-03-21T06:19:16;100227.45;;;11.32;60.76
61436;BME280;47304;47.456;19.160;2023-03-21T06:21:43;100227.42;;;11.37;60.62
61436;BME280;47304;47.456;19.160;2023-03-21T06:24:10;100223.34;;;11.44;60.33
61436;BME280;47304;47.456;19.160;2023-03-21T06:26:37;100225.75;;;11.51;60.10
61436;BME280;47304;47.456;19.160;2023-03-21T06:29:04;100228.67;;;11.61;59.81
61436;BME280;47304;47.456;19.160;2023-03-21T06:31:30;100231.05;;;11.73;59.49
61436;BME280;47304;47.456;19.160;2023-03-21T06:33:57;100231.47;;;11.86;59.17
61436;BME280;47304;47.456;19.160;2023-03-21T06:36:23;100231.91;;;12.00;59.02
61436;BME280;47304;47.456;19.160;2023-03-21T06:38:50;100234.41;;;12.16;58.41
61436;BME280;47304;47.456;19.160;2023-03-21T06:41:17;100229.89;;;12.30;57.98
61436;BME280;47304;47.456;19.160;2023-03-21T06:43:44;100228.86;;;12.45;57.68
61436;BME280;47304;47.456;19.160;2023-03-21T06:46:11;100222.38;;;12.61;57.53
61436;BME280;47304;47.456;19.160;2023-03-21T06:48:37;100226.06;;;12.75;57.00
61436;BME280;47304;47.456;19.160;2023-03-21T06:51:04;100223.81;;;12.87;56.68
61436;BME280;47304;47.456;19.160;2023-03-21T06:53:31;100223.15;;;12.99;56.21
61436;BME280;47304;47.456;19.160;2023-03-21T06:55:57;100221.27;;;13.08;55.83
61436;BME280;47304;47.456;19.160;2023-03-21T06:58:24;100221.48;;;13.18;55.80
61436;BME280;47304;47.456;19.160;2023-03-21T07:00:50;100223.10;;;13.28;55.83
61436;BME280;47304;47.456;19.160;2023-03-21T07:03:17;100224.04;;;13.39;54.91
61436;BME280;47304;47.456;19.160;2023-03-21T07:05:43;100223.31;;;13.42;54.76
61436;BME280;47304;47.456;19.160;2023-03-21T07:08:10;100222.80;;;13.40;54.53
61436;BME280;47304;47.456;19.160;2023-03-21T07:10:38;100226.46;;;13.43;54.50
61436;BME280;47304;47.456;19.160;2023-03-21T07:13:05;100229.02;;;13.48;54.57
61436;BME280;47304;47.456;19.160;2023-03-21T07:15:32;100229.64;;;13.54;54.38
61436;BME280;47304;47.456;19.160;2023-03-21T07:17:59;100231.66;;;13.60;54.05
61436;BME280;47304;47.456;19.160;2023-03-21T07:20:25;100229.11;;;13.66;54.06
61436;BME280;47304;47.456;19.160;2023-03-21T07:22:52;100234.94;;;13.76;53.66
61436;BME280;47304;47.456;19.160;2023-03-21T07:25:19;100230.94;;;13.84;53.49
61436;BME280;47304;47.456;19.160;2023-03-21T07:27:45;100234.49;;;13.93;53.26
61436;BME280;47304;47.456;19.160;2023-03-21T07:30:12;100238.06;;;14.00;52.34
61436;BME280;47304;47.456;19.160;2023-03-21T07:32:39;100240.11;;;14.04;52.39
61436;BME280;47304;47.456;19.160;2023-03-21T07:35:07;100239.52;;;14.09;52.19
61436;BME280;47304;47.456;19.160;2023-03-21T07:37:36;100238.70;;;14.14;51.63
61436;BME280;47304;47.456;19.160;2023-03-21T07:40:04;100238.39;;;14.23;52.06
61436;BME280;47304;47.456;19.160;2023-03-21T07:42:30;100241.85;;;14.36;51.86
61436;BME280;47304;47.456;19.160;2023-03-21T07:45:03;100242.55;;;14.47;50.72
61436;BME280;47304;47.456;19.160;2023-03-21T07:47:30;100240.65;;;14.54;51.01
61436;BME280;47304;47.456;19.160;2023-03-21T07:49:58;100243.65;;;14.63;50.69
61436;BME280;47304;47.456;19.160;2023-03-21T07:52:24;100238.95;;;14.71;50.45
61436;BME280;47304;47.456;19.160;2023-03-21T07:54:51;100236.31;;;14.79;50.42
61436;BME280;47304;47.456;19.160;2023-03-21T07:57:18;100235.44;;;14.88;49.76
61436;BME280;47304;47.456;19.160;2023-03-21T07:59:44;100228.77;;;14.95;49.91
61436;BME280;47304;47.456;19.160;2023-03-21T08:02:14;100227.67;;;15.05;49.46
61436;BME280;47304;47.456;19.160;2023-03-21T08:04:41;100229.34;;;15.18;49.12
61436;BME280;47304;47.456;19.160;2023-03-21T08:07:08;100227.64;;;15.31;48.55
61436;BME280;47304;47.456;19.160;2023-03-21T08:09:36;100226.46;;;15.44;48.00
61436;BME280;47304;47.456;19.160;2023-03-21T08:12:04;100223.02;;;15.56;47.59
61436;BME280;47304;47.456;19.160;2023-03-21T08:14:31;100226.13;;;15.67;47.08
61436;BME280;47304;47.456;19.160;2023-03-21T08:16:58;100224.04;;;15.81;47.25
61436;BME280;47304;47.456;19.160;2023-03-21T08:19:25;100223.48;;;15.97;47.07
61436;BME280;47304;47.456;19.160;2023-03-21T08:21:52;100220.86;;;16.10;45.99
61436;BME280;47304;47.456;19.160;2023-03-21T08:24:19;100220.11;;;16.19;46.21
61436;BME280;47304;47.456;19.160;2023-03-21T08:26:45;100219.61;;;16.31;45.43
61436;BME280;47304;47.456;19.160;2023-03-21T08:29:12;100222.66;;;16.35;44.84
61436;BME280;47304;47.456;19.160;2023-03-21T08:31:39;100222.66;;;16.43;44.64
61436;BME280;47304;47.456;19.160;2023-03-21T08:34:07;100226.61;;;16.47;44.23
61436;BME280;47304;47.456;19.160;2023-03-21T08:36:35;100224.36;;;16.51;44.34
61436;BME280;47304;47.456;19.160;2023-03-21T08:39:03;100223.27;;;16.60;44.07
61436;BME280;47304;47.456;19.160;2023-03-21T08:41:35;100227.35;;;16.65;43.45
61436;BME280;47304;47.456;19.160;2023-03-21T08:44:03;100226.64;;;16.71;43.80
61436;BME280;47304;47.456;19.160;2023-03-21T08:46:30;100228.27;;;16.83;43.41
61436;BME280;47304;47.456;19.160;2023-03-21T08:48:57;100226.10;;;16.91;43.34
61436;BME280;47304;47.456;19.160;2023-03-21T08:51:24;100229.08;;;16.99;42.77
61436;BME280;47304;47.456;19.160;2023-03-21T08:53:50;100217.83;;;17.03;42.40
61436;BME280;47304;47.456;19.160;2023-03-21T08:56:17;100217.23;;;17.05;42.32
61436;BME280;47304;47.456;19.160;2023-03-21T08:58:43;100218.02;;;17.08;41.76
61436;BME280;47304;47.456;19.160;2023-03-21T09:01:10;100215.91;;;17.13;41.82
61436;BME280;47304;47.456;19.160;2023-03-21T09:03:37;100217.20;;;17.18;40.74
61436;BME280;47304;47.456;19.160;2023-03-21T09:06:03;100219.88;;;17.22;40.79
61436;BME280;47304;47.456;19.160;2023-03-21T09:08:32;100213.70;;;17.34;40.52
61436;BME280;47304;47.456;19.160;2023-03-21T09:10:58;100209.36;;;17.48;41.14
61436;BME280;47304;47.456;19.160;2023-03-21T09:13:25;100209.42;;;17.68;40.72
61436;BME280;47304;47.456;19.160;2023-03-21T09:15:53;100208.50;;;17.86;39.90
61436;BME280;47304;47.456;19.160;2023-03-21T09:18:20;100204.42;;;17.98;39.30
61436;BME280;47304;47.456;19.160;2023-03-21T09:20:47;100207.39;;;18.10;39.12
61436;BME280;47304;47.456;19.160;2023-03-21T09:23:14;100207.67;;;18.22;39.03
61436;BME280;47304;47.456;19.160;2023-03-21T09:25:41;100209.13;;;18.37;38.87
61436;BME280;47304;47.456;19.160;2023-03-21T09:28:09;100209.00;;;18.55;38.64
61436;BME280;47304;47.456;19.160;2023-03-21T09:30:36;100207.89;;;18.85;37.87
61436;BME280;47304;47.456;19.160;2023-03-21T09:33:04;100205.86;;;19.17;37.00
61436;BME280;47304;47.456;19.160;2023-03-21T09:35:31;100205.83;;;19.31;36.59
61436;BME280;47304;47.456;19.160;2023-03-21T09:37:58;100201.56;;;19.97;35.80
61436;BME280;47304;47.456;19.160;2023-03-21T09:40:49;100197.94;;;20.97;34.33
61436;BME280;47304;47.456;19.160;2023-03-21T09:43:48;100204.60;;;21.42;32.76
61436;BME280;47304;47.456;19.160;2023-03-21T09:49:04;100197.48;;;23.51;29.59
61436;BME280;47304;47.456;19.160;2023-03-21T09:51:36;100198.90;;;23.60;29.09
61436;BME280;47304;47.456;19.160;2023-03-21T09:54:15;100195.12;;;23.19;29.62
61436;BME280;47304;47.456;19.160;2023-03-21T09:56:44;100194.92;;;22.94;29.94
61436;BME280;47304;47.456;19.160;2023-03-21T09:59:19;100192.42;;;23.10;30.37
61436;BME280;47304;47.456;19.160;2023-03-21T10:01:47;100191.11;;;23.31;29.92
61436;BME280;47304;47.456;19.160;2023-03-21T10:04:15;100190.93;;;23.53;29.66
61436;BME280;47304;47.456;19.160;2023-03-21T10:06:42;100189.56;;;23.95;28.77
61436;BME280;47304;47.456;19.160;2023-03-21T10:09:29;100194.67;;;23.90;28.19
61436;BME280;47304;47.456;19.160;2023-03-21T10:12:06;100187.80;;;23.89;28.39
61436;BME280;47304;47.456;19.160;2023-03-21T10:14:43;100191.27;;;23.81;27.67
61436;BME280;47304;47.456;19.160;2023-03-21T10:18:05;100189.36;;;23.68;27.98
61436;BME280;47304;47.456;19.160;2023-03-21T10:20:34;100180.76;;;24.93;27.22
61436;BME280;47304;47.456;19.160;2023-03-21T10:23:04;100179.11;;;27.17;25.14
61436;BME280;47304;47.456;19.160;2023-03-21T10:25:45;100180.52;;;29.20;23.09
61436;BME280;47304;47.456;19.160;2023-03-21T10:28:20;100176.70;;;31.25;20.95
61436;BME280;47304;47.456;19.160;2023-03-21T10:30:56;100179.19;;;33.34;18.88
61436;BME280;47304;47.456;19.160;2023-03-21T10:33:32;100179.88;;;35.49;17.00
61436;BME280;47304;47.456;19.160;2023-03-21T10:36:01;100172.16;;;37.46;15.45
61436;BME280;47304;47.456;19.160;2023-03-21T10:38:30;100177.77;;;39.10;13.60
61436;BME280;47304;47.456;19.160;2023-03-21T10:40:57;100179.48;;;40.31;12.70
61436;BME280;47304;47.456;19.160;2023-03-21T10:45:53;100177.41;;;42.42;11.16
61436;BME280;47304;47.456;19.160;2023-03-21T10:48:20;100176.00;;;43.34;11.00
61436;BME280;47304;47.456;19.160;2023-03-21T10:50:50;100170.26;;;44.23;9.72
61436;BME280;47304;47.456;19.160;2023-03-21T10:53:31;100170.28;;;44.81;9.55
61436;BME280;47304;47.456;19.160;2023-03-21T10:55:59;100167.11;;;45.54;9.03
61436;BME280;47304;47.456;19.160;2023-03-21T10:58:29;100159.14;;;46.07;8.55
61436;BME280;47304;47.456;19.160;2023-03-21T11:01:00;100158.72;;;46.40;8.50
61436;BME280;47304;47.456;19.160;2023-03-21T11:03:39;100154.30;;;46.27;8.42
61436;BME280;47304;47.456;19.160;2023-03-21T11:08:50;100143.90;;;45.58;8.40
61436;BME280;47304;47.456;19.160;2023-03-21T11:11:40;100143.98;;;44.52;8.73
61436;BME280;47304;47.456;19.160;2023-03-21T11:14:34;100143.71;;;42.89;9.79
61436;BME280;47304;47.456;19.160;2023-03-21T11:19:59;100131.05;;;40.68;10.88
61436;BME280;47304;47.456;19.160;2023-03-21T11:22:29;100129.27;;;39.51;11.15
61436;BME280;47304;47.456;19.160;2023-03-21T11:25:06;100121.80;;;38.01;11.62
61436;BME280;47304;47.456;19.160;2023-03-21T11:27:34;100125.56;;;36.87;13.02
61436;BME280;47304;47.456;19.160;2023-03-21T11:30:02;100125.50;;;35.86;13.84
61436;BME280;47304;47.456;19.160;2023-03-21T11:32:32;100119.20;;;35.27;14.32
61436;BME280;47304;47.456;19.160;2023-03-21T11:35:03;100118.16;;;34.56;14.61
61436;BME280;47304;47.456;19.160;2023-03-21T11:37:33;100114.02;;;34.02;15.24
61436;BME280;47304;47.456;19.160;2023-03-21T11:42:43;100112.60;;;32.19;16.15
61436;BME280;47304;47.456;19.160;2023-03-21T11:45:14;100112.86;;;31.44;17.05
61436;BME280;47304;47.456;19.160;2023-03-21T11:47:41;100106.79;;;30.81;17.53
61436;BME280;47304;47.456;19.160;2023-03-21T11:50:22;100104.21;;;30.05;18.28
61436;BME280;47304;47.456;19.160;2023-03-21T12:03:45;100097.70;;;24.47;24.05
61436;BME280;47304;47.456;19.160;2023-03-21T12:11:40;100096.67;;;22.58;25.95
61436;BME280;47304;47.456;19.160;2023-03-21T12:14:42;100095.79;;;22.31;26.80
61436;BME280;47304;47.456;19.160;2023-03-21T12:17:49;100092.43;;;22.21;27.05
61436;BME280;47304;47.456;19.160;2023-03-21T12:20:25;100091.65;;;22.18;27.17
61436;BME280;47304;47.456;19.160;2023-03-21T12:25:30;100088.86;;;22.14;26.12
61436;BME280;47304;47.456;19.160;2023-03-21T12:31:00;100082.64;;;21.79;27.64
61436;BME280;47304;47.456;19.160;2023-03-21T12:38:40;100085.95;;;20.55;28.31
61436;BME280;47304;47.456;19.160;2023-03-21T12:41:29;100086.51;;;20.19;28.83
61436;BME280;47304;47.456;19.160;2023-03-21T12:44:10;100085.61;;;19.86;29.54
61436;BME280;47304;47.456;19.160;2023-03-21T12:46:46;100084.14;;;19.53;30.34
61436;BME280;47304;47.456;19.160;2023-03-21T12:52:04;100085.05;;;19.14;30.16
61436;BME280;47304;47.456;19.160;2023-03-21T12:54:55;100075.59;;;19.02;30.53
61436;BME280;47304;47.456;19.160;2023-03-21T12:57:31;100071.77;;;18.96;30.80
61436;BME280;47304;47.456;19.160;2023-03-21T13:00:10;100069.91;;;18.88;31.27
61436;BME280;47304;47.456;19.160;2023-03-21T13:05:57;100067.63;;;18.92;31.77
61436;BME280;47304;47.456;19.160;2023-03-21T13:08:52;100061.21;;;19.06;31.22
61436;BME280;47304;47.456;19.160;2023-03-21T13:11:24;100057.23;;;19.31;30.85
61436;BME280;47304;47.456;19.160;2023-03-21T13:14:37;100048.79;;;19.66;30.39
61436;BME280;47304;47.456;19.160;2023-03-21T13:22:21;100035.65;;;20.11;29.22
61436;BME280;47304;47.456;19.160;2023-03-21T13:25:23;100035.75;;;20.01;29.35
61436;BME280;47304;47.456;19.160;2023-03-21T13:28:00;100041.74;;;19.81;29.85
61436;BME280;47304;47.456;19.160;2023-03-21T13:30:28;100045.46;;;19.61;30.52
61436;BME280;47304;47.456;19.160;2023-03-21T13:33:09;100047.76;;;19.36;31.00
61436;BME280;47304;47.456;19.160;2023-03-21T13:35:39;100051.35;;;19.09;31.12
61436;BME280;47304;47.456;19.160;2023-03-21T13:38:20;100048.73;;;18.89;31.26
61436;BME280;47304;47.456;19.160;2023-03-21T13:46:09;100041.45;;;18.58;30.76
61436;BME280;47304;47.456;19.160;2023-03-21T13:51:40;100044.31;;;18.43;30.98
61436;BME280;47304;47.456;19.160;2023-03-21T13:59:11;100029.08;;;19.15;31.01
61436;BME280;47304;47.456;19.160;2023-03-21T14:01:40;100026.70;;;19.51;30.04
61436;BME280;47304;47.456;19.160;2023-03-21T14:09:07;100017.37;;;19.99;29.71
61436;BME280;47304;47.456;19.160;2023-03-21T14:11:35;100018.66;;;19.90;29.78
61436;BME280;47304;47.456;19.160;2023-03-21T14:14:03;100013.84;;;19.78;29.70
61436;BME280;47304;47.456;19.160;2023-03-21T14:16:32;100013.08;;;19.58;30.03
61436;BME280;47304;47.456;19.160;2023-03-21T14:19:02;100008.70;;;19.61;30.25
61436;BME280;47304;47.456;19.160;2023-03-21T14:21:32;100005.06;;;19.74;30.32
61436;BME280;47304;47.456;19.160;2023-03-21T14:24:00;99999.80;;;20.10;29.86
61436;BME280;47304;47.456;19.160;2023-03-21T14:26:51;99997.48;;;20.25;29.35
61436;BME280;47304;47.456;19.160;2023-03-21T14:29:30;99991.97;;;20.33;29.42
61436;BME280;47304;47.456;19.160;2023-03-21T14:31:58;99985.92;;;20.56;29.14
61436;BME280;47304;47.456;19.160;2023-03-21T14:34:27;99987.43;;;20.95;28.49
61436;BME280;47304;47.456;19.160;2023-03-21T14:36:55;99986.46;;;21.70;27.85
61436;BME280;47304;47.456;19.160;2023-03-21T14:39:30;99981.41;;;22.64;25.50